Time;durP1;ratioP1;P1;durP2;ratioP2;P2;SDS_P1;SDS_P2;PMS_P1;PMS_P2;Temp;Humidity;BMP_temperature;BMP_pressure;BME280_temperature;BME280_humidity;BME280_pressure;Samples;Min_cycle;Max_cycle;Signal;HPM_P1;HPM_P2
2021/11/14 00:02:01;;;;;;;85.03;34.83;;;;;;;;;;5112737;28;20044;-61
2021/11/14 00:04:27;;;;;;;82.63;36.80;;;;;;;;;;5121295;28;20047;-61
2021/11/14 00:06:53;;;;;;;87.95;35.95;;;;;;;;;;5109091;28;20063;-61
2021/11/14 00:09:19;;;;;;;85.57;36.47;;;;;;;;;;5117176;28;21575;-61
2021/11/14 00:11:46;;;;;;;72.13;34.30;;;;;;;;;;5119806;28;20135;-61
2021/11/14 00:14:12;;;;;;;80.97;34.50;;;;;;;;;;5124004;28;20067;-61
2021/11/14 00:16:38;;;;;;;88.10;38.05;;;;;;;;;;5125586;28;20126;-61
2021/11/14 00:19:04;;;;;;;82.50;37.05;;;;;;;;;;5120927;28;20031;-61
2021/11/14 00:21:31;;;;;;;92.28;37.20;;;;;;;;;;5113022;28;20102;-61
2021/11/14 00:23:57;;;;;;;84.88;37.63;;;;;;;;;;5121623;28;20062;-61
2021/11/14 00:26:24;;;;;;;86.85;36.30;;;;;;;;;;5115340;28;20046;-61
2021/11/14 00:28:50;;;;;;;90.80;38.08;;;;;;;;;;5114577;28;20090;-61
2021/11/14 00:31:18;;;;;;;91.97;38.17;;;;;;;;;;5117068;28;20063;-61
2021/11/14 00:33:46;;;;;;;102.32;38.15;;;;;;;;;;5123758;28;20051;-61
2021/11/14 00:36:15;;;;;;;98.63;38.97;;;;;;;;;;5105785;28;20096;-62
2021/11/14 00:38:41;;;;;;;101.43;39.53;;;;;;;;;;5114333;28;20044;-61
2021/11/14 00:41:08;;;;;;;92.22;37.92;;;;;;;;;;5106270;28;20044;-61
2021/11/14 00:43:34;;;;;;;105.50;41.45;;;;;;;;;;5124936;28;20040;-61
2021/11/14 00:46:02;;;;;;;106.43;40.60;;;;;;;;;;5125164;28;20035;-61
2021/11/14 00:48:28;;;;;;;95.30;37.88;;;;;;;;;;5125056;28;20058;-61
2021/11/14 00:50:54;;;;;;;102.95;38.75;;;;;;;;;;5118262;28;20491;-62
2021/11/14 00:53:20;;;;;;;112.47;41.33;;;;;;;;;;5119945;28;20381;-61
2021/11/14 00:55:47;;;;;;;112.95;39.85;;;;;;;;;;5124871;28;20149;-61
2021/11/14 00:58:14;;;;;;;112.45;39.95;;;;;;;;;;5125478;28;20509;-61
2021/11/14 01:00:40;;;;;;;101.90;39.50;;;;;;;;;;5114660;28;20036;-61
2021/11/14 01:03:08;;;;;;;104.88;38.30;;;;;;;;;;5114872;28;20149;-60
2021/11/14 01:05:34;;;;;;;97.20;38.80;;;;;;;;;;5119261;28;20028;-61
2021/11/14 01:08:01;;;;;;;96.53;36.55;;;;;;;;;;5113786;28;20046;-61
2021/11/14 01:10:29;;;;;;;94.20;35.23;;;;;;;;;;5118617;28;20071;-60
2021/11/14 01:12:55;;;;;;;96.25;35.95;;;;;;;;;;5117535;28;20040;-60
2021/11/14 01:15:22;;;;;;;93.20;34.75;;;;;;;;;;5118756;28;20103;-60
2021/11/14 01:17:49;;;;;;;98.75;35.65;;;;;;;;;;5113832;28;20043;-61
2021/11/14 01:20:21;;;;;;;88.80;35.28;;;;;;;;;;5124188;28;20050;-60
2021/11/14 01:22:48;;;;;;;84.72;35.30;;;;;;;;;;5105517;28;20112;-61
2021/11/14 01:25:15;;;;;;;80.82;35.25;;;;;;;;;;5101619;28;20052;-60
2021/11/14 01:27:41;;;;;;;89.90;36.50;;;;;;;;;;5118983;28;20043;-60
2021/11/14 01:30:10;;;;;;;90.85;36.70;;;;;;;;;;5121468;28;20054;-60
2021/11/14 01:32:37;;;;;;;81.47;33.97;;;;;;;;;;5117791;28;20048;-60
2021/11/14 01:35:04;;;;;;;71.68;31.38;;;;;;;;;;5095676;28;20107;-60
2021/11/14 01:37:30;;;;;;;71.30;29.55;;;;;;;;;;5116747;28;20040;-60
2021/11/14 01:39:56;;;;;;;72.68;27.45;;;;;;;;;;5109595;28;20035;-60
2021/11/14 01:42:22;;;;;;;71.05;28.38;;;;;;;;;;5113425;28;20048;-60
2021/11/14 01:44:48;;;;;;;88.40;35.20;;;;;;;;;;5121496;28;20039;-61
2021/11/14 01:47:14;;;;;;;82.93;33.20;;;;;;;;;;5116947;28;20054;-61
2021/11/14 01:49:41;;;;;;;87.35;33.50;;;;;;;;;;5124284;28;20055;-61
2021/11/14 01:52:17;;;;;;;89.22;34.78;;;;;;;;;;5117143;28;20103;-61
2021/11/14 01:54:44;;;;;;;86.57;33.45;;;;;;;;;;5101095;28;20434;-61
2021/11/14 01:57:10;;;;;;;89.88;33.92;;;;;;;;;;5119832;28;20032;-60
2021/11/14 01:59:37;;;;;;;95.43;37.55;;;;;;;;;;5124305;28;20044;-60
2021/11/14 02:02:03;;;;;;;79.03;33.80;;;;;;;;;;5124301;28;20036;-60
2021/11/14 02:04:30;;;;;;;74.07;30.48;;;;;;;;;;5124522;28;20105;-61
2021/11/14 02:06:56;;;;;;;56.88;25.85;;;;;;;;;;5124458;28;20046;-61
2021/11/14 02:09:22;;;;;;;65.70;30.08;;;;;;;;;;5110560;28;20047;-61
2021/11/14 02:11:48;;;;;;;59.97;26.90;;;;;;;;;;5124065;28;20497;-60
2021/11/14 02:14:15;;;;;;;68.38;30.15;;;;;;;;;;5116458;28;20173;-60
2021/11/14 02:16:41;;;;;;;58.40;27.35;;;;;;;;;;5124347;28;20101;-60
2021/11/14 02:19:09;;;;;;;57.00;26.50;;;;;;;;;;5121848;28;20051;-60
2021/11/14 02:21:35;;;;;;;57.72;27.80;;;;;;;;;;5123950;28;20063;-60
2021/11/14 02:24:02;;;;;;;47.60;22.55;;;;;;;;;;5124791;28;20067;-60
2021/11/14 02:26:29;;;;;;;57.20;29.63;;;;;;;;;;5124051;28;20051;-60
2021/11/14 02:28:55;;;;;;;54.35;28.00;;;;;;;;;;5123350;28;20056;-60
2021/11/14 02:31:22;;;;;;;57.30;26.83;;;;;;;;;;5124214;28;20040;-60
2021/11/14 02:33:49;;;;;;;56.35;28.63;;;;;;;;;;5124368;28;20118;-60
2021/11/14 02:36:16;;;;;;;55.08;27.20;;;;;;;;;;5110037;28;20464;-61
2021/11/14 02:38:42;;;;;;;49.17;23.65;;;;;;;;;;5114333;28;20063;-61
2021/11/14 02:41:09;;;;;;;51.05;27.10;;;;;;;;;;5117125;28;20100;-61
2021/11/14 02:43:36;;;;;;;55.85;25.92;;;;;;;;;;5124137;28;20058;-61
2021/11/14 02:46:02;;;;;;;52.80;21.92;;;;;;;;;;5124009;28;20032;-61
2021/11/14 02:48:29;;;;;;;66.45;28.92;;;;;;;;;;5122697;28;20112;-61
2021/11/14 02:50:58;;;;;;;61.42;27.90;;;;;;;;;;5119603;28;20058;-61
2021/11/14 02:53:24;;;;;;;70.88;31.55;;;;;;;;;;5122063;28;20068;-61
2021/11/14 02:55:50;;;;;;;61.80;25.33;;;;;;;;;;5119538;28;20052;-61
2021/11/14 02:58:17;;;;;;;60.80;27.13;;;;;;;;;;5126922;28;20081;-61
2021/11/14 03:00:49;;;;;;;73.75;31.95;;;;;;;;;;5121255;28;20043;-61
2021/11/14 03:03:15;;;;;;;77.85;29.67;;;;;;;;;;5125173;28;20052;-61
2021/11/14 03:05:42;;;;;;;79.13;31.70;;;;;;;;;;5119100;28;20102;-61
2021/11/14 03:08:08;;;;;;;71.57;29.35;;;;;;;;;;5122413;28;20044;-61
2021/11/14 03:10:34;;;;;;;90.82;32.88;;;;;;;;;;5122724;28;20047;-61
2021/11/14 03:13:06;;;;;;;75.78;31.63;;;;;;;;;;5109202;28;20052;-61
2021/11/14 03:15:35;;;;;;;77.85;31.55;;;;;;;;;;5127573;28;20038;-61
2021/11/14 03:18:01;;;;;;;73.47;29.67;;;;;;;;;;5127350;28;20044;-61
2021/11/14 03:20:27;;;;;;;81.97;30.60;;;;;;;;;;5113619;28;20105;-60
2021/11/14 03:22:54;;;;;;;59.50;23.65;;;;;;;;;;5127495;28;20062;-61
2021/11/14 03:25:22;;;;;;;88.70;33.53;;;;;;;;;;5124179;28;20107;-61
2021/11/14 03:27:48;;;;;;;70.78;30.63;;;;;;;;;;5115240;28;20081;-61
2021/11/14 03:30:16;;;;;;;76.43;30.05;;;;;;;;;;5124817;28;20069;-61
2021/11/14 03:32:42;;;;;;;77.15;29.48;;;;;;;;;;5114003;28;20091;-60
2021/11/14 03:35:08;;;;;;;75.90;31.35;;;;;;;;;;5127410;28;20048;-61
2021/11/14 03:37:34;;;;;;;69.82;28.17;;;;;;;;;;5122091;28;20044;-61
2021/11/14 03:40:01;;;;;;;81.18;32.53;;;;;;;;;;5117044;28;20507;-61
2021/11/14 03:42:27;;;;;;;84.65;33.33;;;;;;;;;;5124192;28;20048;-61
2021/11/14 03:44:53;;;;;;;89.95;31.88;;;;;;;;;;5117732;28;20049;-60
2021/11/14 03:47:19;;;;;;;100.68;35.65;;;;;;;;;;5122257;28;20058;-61
2021/11/14 03:49:45;;;;;;;88.80;35.45;;;;;;;;;;5120460;28;20423;-61
2021/11/14 03:52:12;;;;;;;89.30;32.97;;;;;;;;;;5113652;28;20126;-61
2021/11/14 03:54:39;;;;;;;98.00;33.40;;;;;;;;;;5108480;28;20154;-61
2021/11/14 03:57:05;;;;;;;79.93;30.10;;;;;;;;;;5116877;28;20039;-61
2021/11/14 03:59:33;;;;;;;79.63;32.28;;;;;;;;;;5126366;28;20142;-61
2021/11/14 04:01:59;;;;;;;75.35;29.55;;;;;;;;;;5125693;28;20036;-61
2021/11/14 04:04:25;;;;;;;75.85;30.13;;;;;;;;;;5112089;28;20075;-60
2021/11/14 04:06:51;;;;;;;64.88;26.70;;;;;;;;;;5126564;28;20043;-61
2021/11/14 04:09:17;;;;;;;82.53;31.75;;;;;;;;;;5113160;28;20052;-61
2021/11/14 04:11:43;;;;;;;67.57;28.27;;;;;;;;;;5112150;28;20091;-61
2021/11/14 04:14:10;;;;;;;46.17;21.35;;;;;;;;;;5126599;28;20043;-61
2021/11/14 04:16:36;;;;;;;58.25;27.98;;;;;;;;;;5126669;28;20042;-61
2021/11/14 04:19:02;;;;;;;55.35;23.83;;;;;;;;;;5126473;28;20143;-61
2021/11/14 04:21:29;;;;;;;53.90;25.23;;;;;;;;;;5111088;28;20044;-61
2021/11/14 04:23:55;;;;;;;58.05;28.67;;;;;;;;;;5118086;28;20035;-61
2021/11/14 04:26:21;;;;;;;60.53;26.27;;;;;;;;;;5125704;28;20122;-61
2021/11/14 04:28:47;;;;;;;56.30;27.13;;;;;;;;;;5126364;28;20427;-61
2021/11/14 04:31:14;;;;;;;60.75;27.00;;;;;;;;;;5125679;28;20126;-61
2021/11/14 04:33:40;;;;;;;62.92;28.15;;;;;;;;;;5125283;28;20043;-60
2021/11/14 04:36:06;;;;;;;56.42;27.70;;;;;;;;;;5125749;28;20036;-60
2021/11/14 04:38:32;;;;;;;53.28;27.45;;;;;;;;;;5111351;28;20050;-60
2021/11/14 04:40:59;;;;;;;55.38;26.33;;;;;;;;;;5125309;28;20043;-60
2021/11/14 04:43:25;;;;;;;50.13;24.08;;;;;;;;;;5123670;28;20518;-62
2021/11/14 04:45:52;;;;;;;52.47;25.25;;;;;;;;;;5125754;28;20039;-60
2021/11/14 04:48:20;;;;;;;56.03;26.75;;;;;;;;;;5125686;28;20066;-60
2021/11/14 04:50:46;;;;;;;;;;;;;;;;;;5124347;28;20388;-60
2021/11/14 04:53:12;;;;;;;55.30;28.33;;;;;;;;;;5111765;28;19927;-60
2021/11/14 04:55:40;;;;;;;54.60;27.58;;;;;;;;;;5122627;28;20131;-60
2021/11/14 04:58:06;;;;;;;60.15;27.85;;;;;;;;;;5125989;28;20043;-60
2021/11/14 05:00:35;;;;;;;61.00;28.90;;;;;;;;;;5124751;28;20048;-60
2021/11/14 05:03:02;;;;;;;63.80;29.48;;;;;;;;;;5122557;28;20059;-60
2021/11/14 05:05:28;;;;;;;66.28;30.25;;;;;;;;;;5125380;28;20111;-60
2021/11/14 05:07:54;;;;;;;65.50;29.10;;;;;;;;;;5123429;28;20079;-60
2021/11/14 05:10:21;;;;;;;54.97;25.50;;;;;;;;;;5105915;28;20100;-60
2021/11/14 05:12:47;;;;;;;68.82;29.42;;;;;;;;;;5125795;28;20122;-60
2021/11/14 05:15:13;;;;;;;67.72;29.40;;;;;;;;;;5110569;28;20048;-60
2021/11/14 05:17:39;;;;;;;67.78;26.63;;;;;;;;;;5125324;28;20046;-60
2021/11/14 05:20:06;;;;;;;62.53;28.67;;;;;;;;;;5125194;28;20131;-60
2021/11/14 05:22:32;;;;;;;71.20;29.88;;;;;;;;;;5124158;28;20114;-60
2021/11/14 05:24:58;;;;;;;72.25;30.98;;;;;;;;;;5110381;28;20043;-60
2021/11/14 05:27:25;;;;;;;73.22;29.70;;;;;;;;;;5124996;28;20050;-60
2021/11/14 05:29:51;;;;;;;71.78;29.52;;;;;;;;;;5124602;28;20464;-60
2021/11/14 05:32:17;;;;;;;63.05;27.77;;;;;;;;;;5121751;28;20055;-60
2021/11/14 05:34:43;;;;;;;64.40;27.25;;;;;;;;;;5124893;28;20085;-60
2021/11/14 05:37:09;;;;;;;53.10;26.02;;;;;;;;;;5124247;28;20048;-60
2021/11/14 05:39:36;;;;;;;58.47;26.20;;;;;;;;;;5124688;28;20042;-60
2021/11/14 05:42:02;;;;;;;69.30;29.77;;;;;;;;;;5124112;28;20043;-60
2021/11/14 05:44:28;;;;;;;58.90;27.60;;;;;;;;;;5124728;28;20048;-60
2021/11/14 05:46:54;;;;;;;63.33;27.17;;;;;;;;;;5123221;28;20078;-60
2021/11/14 05:49:20;;;;;;;58.92;26.23;;;;;;;;;;5110846;28;21527;-60
2021/11/14 05:51:47;;;;;;;62.88;28.77;;;;;;;;;;5124448;28;20047;-60
2021/11/14 05:54:13;;;;;;;61.15;29.90;;;;;;;;;;5123813;28;20047;-60
2021/11/14 05:56:39;;;;;;;59.13;26.75;;;;;;;;;;5103779;28;20040;-59
2021/11/14 06:01:38;;;;;;;63.47;29.63;;;;;;;;;;5124205;28;20587;-60
2021/11/14 06:04:22;;;;;;;59.33;27.85;;;;;;;;;;5124593;28;20575;-60
2021/11/14 06:06:49;;;;;;;60.20;27.33;;;;;;;;;;5123945;28;20036;-60
2021/11/14 06:09:15;;;;;;;52.38;26.15;;;;;;;;;;5111249;28;20081;-60
2021/11/14 06:11:41;;;;;;;59.22;27.23;;;;;;;;;;5122720;28;20065;-60
2021/11/14 06:14:07;;;;;;;52.53;26.00;;;;;;;;;;5124600;28;20051;-60
2021/11/14 06:16:34;;;;;;;56.88;26.85;;;;;;;;;;5109928;28;20071;-60
2021/11/14 06:19:00;;;;;;;56.25;27.10;;;;;;;;;;5115490;28;20039;-60
2021/11/14 06:21:26;;;;;;;51.63;27.15;;;;;;;;;;5123163;28;20043;-60
2021/11/14 06:23:53;;;;;;;44.33;21.45;;;;;;;;;;5111789;28;20043;-60
2021/11/14 06:26:20;;;;;;;51.40;25.33;;;;;;;;;;5126518;28;20046;-60
2021/11/14 06:28:46;;;;;;;53.88;27.27;;;;;;;;;;5126174;28;20311;-61
2021/11/14 06:31:12;;;;;;;46.55;24.92;;;;;;;;;;5128423;28;20095;-61
2021/11/14 06:33:38;;;;;;;61.88;29.35;;;;;;;;;;5124995;28;20446;-60
2021/11/14 06:36:05;;;;;;;52.90;25.25;;;;;;;;;;5117544;28;20095;-60
2021/11/14 06:38:31;;;;;;;52.83;25.98;;;;;;;;;;5127340;28;20155;-60
2021/11/14 06:40:57;;;;;;;50.25;24.20;;;;;;;;;;5127832;28;20040;-60
2021/11/14 06:43:23;;;;;;;44.95;22.17;;;;;;;;;;5128286;28;20150;-60
2021/11/14 06:45:50;;;;;;;52.22;26.23;;;;;;;;;;5127662;28;20057;-60
2021/11/14 06:48:16;;;;;;;56.75;27.90;;;;;;;;;;5115084;28;20131;-60
2021/11/14 06:50:42;;;;;;;48.35;25.13;;;;;;;;;;5125927;28;20055;-60
2021/11/14 06:53:08;;;;;;;51.78;25.88;;;;;;;;;;5113639;28;20062;-60
2021/11/14 06:55:34;;;;;;;50.17;26.38;;;;;;;;;;5115475;28;20124;-61
2021/11/14 06:58:00;;;;;;;54.97;27.80;;;;;;;;;;5100851;28;20099;-61
2021/11/14 07:00:27;;;;;;;52.80;26.48;;;;;;;;;;5127857;28;20040;-61
2021/11/14 07:02:53;;;;;;;48.97;26.03;;;;;;;;;;5113183;28;20192;-61
2021/11/14 07:05:20;;;;;;;54.35;26.60;;;;;;;;;;5127827;28;20036;-60
2021/11/14 07:07:46;;;;;;;48.78;25.25;;;;;;;;;;5118924;28;20051;-61
2021/11/14 07:10:14;;;;;;;52.60;25.80;;;;;;;;;;5127197;28;20043;-61
2021/11/14 07:12:40;;;;;;;44.20;24.63;;;;;;;;;;5103546;28;20046;-61
2021/11/14 07:15:08;;;;;;;46.47;26.98;;;;;;;;;;5126196;28;20043;-61
2021/11/14 07:17:34;;;;;;;46.40;24.05;;;;;;;;;;5116471;28;20051;-61
2021/11/14 07:20:00;;;;;;;46.50;26.63;;;;;;;;;;5106052;28;20047;-61
2021/11/14 07:22:27;;;;;;;48.25;25.90;;;;;;;;;;5125735;28;20140;-61
2021/11/14 07:24:53;;;;;;;46.92;25.60;;;;;;;;;;5126999;28;20032;-61
2021/11/14 07:27:19;;;;;;;46.17;24.48;;;;;;;;;;5119991;28;20135;-61
2021/11/14 07:29:45;;;;;;;46.60;25.48;;;;;;;;;;5120491;28;20051;-61
2021/11/14 07:32:11;;;;;;;46.30;24.80;;;;;;;;;;5122154;28;20036;-61
2021/11/14 07:34:38;;;;;;;48.30;25.73;;;;;;;;;;5122994;28;20476;-61
2021/11/14 07:37:04;;;;;;;49.22;24.25;;;;;;;;;;5125758;28;20091;-61
2021/11/14 07:39:31;;;;;;;49.63;24.65;;;;;;;;;;5126777;28;20047;-61
2021/11/14 07:41:57;;;;;;;46.70;25.58;;;;;;;;;;5112303;28;20082;-61
2021/11/14 07:44:23;;;;;;;47.47;24.83;;;;;;;;;;5096078;28;20126;-61
2021/11/14 07:46:49;;;;;;;43.30;25.00;;;;;;;;;;5112821;28;20051;-61
2021/11/14 07:49:15;;;;;;;49.22;25.35;;;;;;;;;;5112332;28;20123;-60
2021/11/14 07:51:42;;;;;;;53.20;24.75;;;;;;;;;;5108487;28;20044;-61
2021/11/14 07:54:08;;;;;;;49.07;24.27;;;;;;;;;;5115819;28;20051;-60
2021/11/14 07:56:34;;;;;;;43.42;23.48;;;;;;;;;;5116062;28;20041;-60
2021/11/14 07:59:01;;;;;;;44.85;24.05;;;;;;;;;;5126467;28;20036;-60
2021/11/14 08:01:27;;;;;;;49.92;24.83;;;;;;;;;;5118310;28;20063;-60
2021/11/14 08:03:53;;;;;;;46.75;23.42;;;;;;;;;;5116013;28;20059;-61
2021/11/14 08:06:20;;;;;;;48.28;24.30;;;;;;;;;;5111812;28;20148;-61
2021/11/14 08:08:46;;;;;;;54.70;23.05;;;;;;;;;;5115295;28;20415;-61
2021/11/14 08:11:12;;;;;;;49.55;23.98;;;;;;;;;;5118381;28;20040;-62
2021/11/14 08:13:38;;;;;;;54.30;25.17;;;;;;;;;;5092478;28;20040;-61
2021/11/14 08:16:05;;;;;;;54.67;25.92;;;;;;;;;;5113723;28;20042;-62
2021/11/14 08:18:31;;;;;;;42.63;20.25;;;;;;;;;;5122464;28;20111;-61
2021/11/14 08:20:58;;;;;;;48.13;24.40;;;;;;;;;;5114844;28;21096;-62
2021/11/14 08:23:24;;;;;;;53.60;25.50;;;;;;;;;;5096695;28;20104;-62
2021/11/14 08:25:50;;;;;;;49.58;27.02;;;;;;;;;;5116894;28;20038;-60
2021/11/14 08:28:17;;;;;;;49.67;25.08;;;;;;;;;;5117350;28;20047;-59
2021/11/14 08:30:44;;;;;;;53.10;27.42;;;;;;;;;;5119702;28;20051;-60
2021/11/14 08:33:11;;;;;;;53.13;24.30;;;;;;;;;;5119593;28;20039;-60
2021/11/14 08:35:37;;;;;;;51.50;27.45;;;;;;;;;;5115039;28;20077;-60
2021/11/14 08:38:05;;;;;;;48.90;26.15;;;;;;;;;;5115218;28;20063;-60
2021/11/14 08:40:32;;;;;;;57.83;27.65;;;;;;;;;;5114250;28;20035;-60
2021/11/14 08:43:00;;;;;;;49.13;25.27;;;;;;;;;;5114235;28;20089;-60
2021/11/14 08:45:26;;;;;;;57.47;28.52;;;;;;;;;;5118640;28;20594;-60
2021/11/14 08:47:53;;;;;;;56.20;29.00;;;;;;;;;;5113355;28;20048;-60
2021/11/14 08:50:19;;;;;;;53.78;23.80;;;;;;;;;;5120937;28;20047;-60
2021/11/14 08:52:45;;;;;;;61.28;29.38;;;;;;;;;;5106912;28;20040;-60
2021/11/14 08:55:12;;;;;;;65.07;30.02;;;;;;;;;;5119877;28;20040;-61
2021/11/14 08:57:39;;;;;;;50.67;26.27;;;;;;;;;;5123709;28;20169;-60
2021/11/14 09:00:06;;;;;;;50.30;25.48;;;;;;;;;;5113122;28;20063;-61
2021/11/14 09:02:32;;;;;;;51.73;23.27;;;;;;;;;;5112946;28;20103;-60
2021/11/14 09:04:58;;;;;;;61.78;31.45;;;;;;;;;;5109921;28;20062;-60
2021/11/14 09:07:24;;;;;;;66.15;30.95;;;;;;;;;;5117536;28;20115;-60
2021/11/14 09:09:50;;;;;;;54.75;30.40;;;;;;;;;;5121193;28;20073;-60
2021/11/14 09:12:16;;;;;;;62.90;30.50;;;;;;;;;;5114895;28;20123;-60
2021/11/14 09:14:43;;;;;;;56.85;28.02;;;;;;;;;;5117367;28;20648;-60
2021/11/14 09:17:09;;;;;;;57.28;29.08;;;;;;;;;;5122750;28;20161;-59
2021/11/14 09:19:35;;;;;;;55.05;26.83;;;;;;;;;;5118350;28;20051;-60
2021/11/14 09:22:01;;;;;;;54.70;27.52;;;;;;;;;;5113582;28;20040;-60
2021/11/14 09:24:27;;;;;;;47.03;25.13;;;;;;;;;;5119706;28;20061;-60
2021/11/14 09:26:53;;;;;;;56.22;27.65;;;;;;;;;;5107100;28;20107;-61
2021/11/14 09:29:20;;;;;;;54.25;28.17;;;;;;;;;;5111742;28;20151;-60
2021/11/14 09:31:46;;;;;;;54.58;28.85;;;;;;;;;;5113978;28;20050;-60
2021/11/14 09:34:12;;;;;;;54.60;27.35;;;;;;;;;;5119520;28;20099;-60
2021/11/14 09:36:39;;;;;;;47.95;26.52;;;;;;;;;;5112221;28;20039;-61
2021/11/14 09:39:07;;;;;;;53.80;24.80;;;;;;;;;;5116735;28;20051;-61
2021/11/14 09:41:34;;;;;;;54.38;27.63;;;;;;;;;;5095650;28;20032;-61
2021/11/14 09:44:00;;;;;;;48.67;25.98;;;;;;;;;;5120184;28;20130;-61
2021/11/14 09:46:27;;;;;;;50.58;26.58;;;;;;;;;;5113796;28;20032;-60
2021/11/14 09:48:53;;;;;;;50.40;23.95;;;;;;;;;;5113003;28;20132;-61
2021/11/14 09:51:19;;;;;;;51.30;27.52;;;;;;;;;;5121216;28;20107;-61
2021/11/14 09:53:45;;;;;;;58.03;28.13;;;;;;;;;;5091622;28;20119;-61
2021/11/14 09:56:12;;;;;;;55.47;26.10;;;;;;;;;;5117379;28;20078;-62
2021/11/14 09:58:38;;;;;;;57.72;27.52;;;;;;;;;;5107402;28;20048;-61
2021/11/14 10:01:05;;;;;;;54.45;26.30;;;;;;;;;;5113082;28;20056;-61
2021/11/14 10:03:31;;;;;;;52.20;26.02;;;;;;;;;;5107545;28;20519;-61
2021/11/14 10:05:58;;;;;;;51.95;23.67;;;;;;;;;;5109176;28;20032;-62
2021/11/14 10:08:25;;;;;;;50.97;24.77;;;;;;;;;;5109999;28;20082;-60
2021/11/14 10:10:55;;;;;;;54.87;26.67;;;;;;;;;;5114798;28;20040;-60
2021/11/14 10:13:27;;;;;;;50.35;26.67;;;;;;;;;;5111631;28;20293;-61
2021/11/14 10:16:13;;;;;;;56.35;27.02;;;;;;;;;;5111829;28;20063;-61
2021/11/14 10:18:40;;;;;;;44.55;22.65;;;;;;;;;;5091981;28;20104;-64
2021/11/14 10:21:07;;;;;;;55.35;26.58;;;;;;;;;;5092948;28;20066;-63
2021/11/14 10:23:35;;;;;;;51.72;25.02;;;;;;;;;;5088516;28;20043;-62
2021/11/14 10:26:08;;;;;;;50.08;25.02;;;;;;;;;;5116812;28;20097;-62
2021/11/14 10:28:35;;;;;;;44.83;23.05;;;;;;;;;;5113422;28;20114;-62
2021/11/14 10:31:01;;;;;;;46.90;23.45;;;;;;;;;;5111109;28;20122;-61
2021/11/14 10:33:28;;;;;;;38.53;18.88;;;;;;;;;;5112686;28;20039;-61
2021/11/14 10:35:55;;;;;;;42.85;22.05;;;;;;;;;;5113091;28;20407;-62
2021/11/14 10:38:29;;;;;;;38.97;18.08;;;;;;;;;;5113164;28;20055;-62
2021/11/14 10:40:57;;;;;;;36.42;19.33;;;;;;;;;;5109953;28;20032;-62
2021/11/14 10:43:24;;;;;;;36.75;20.05;;;;;;;;;;5106563;28;20067;-61
2021/11/14 10:45:51;;;;;;;38.60;20.38;;;;;;;;;;5116286;28;20035;-61
2021/11/14 10:48:19;;;;;;;38.78;20.60;;;;;;;;;;5092415;28;20060;-61
2021/11/14 10:50:49;;;;;;;33.97;19.45;;;;;;;;;;5115804;28;20134;-61
2021/11/14 10:53:17;;;;;;;25.98;15.00;;;;;;;;;;5114525;28;20059;-61
2021/11/14 10:55:47;;;;;;;37.45;19.73;;;;;;;;;;5115729;28;20052;-62
2021/11/14 10:58:14;;;;;;;37.90;20.13;;;;;;;;;;5110581;28;20031;-61
2021/11/14 11:00:42;;;;;;;37.47;20.05;;;;;;;;;;5106709;28;20047;-61
2021/11/14 11:03:09;;;;;;;29.88;18.23;;;;;;;;;;5115958;28;20049;-62
2021/11/14 11:05:35;;;;;;;34.92;18.52;;;;;;;;;;5097072;28;20054;-62
2021/11/14 11:08:03;;;;;;;32.13;17.77;;;;;;;;;;5114837;28;20069;-62
2021/11/14 11:10:40;;;;;;;26.02;16.27;;;;;;;;;;5114956;28;20059;-62
2021/11/14 11:13:08;;;;;;;32.65;17.33;;;;;;;;;;5112601;28;20495;-63
2021/11/14 11:15:39;;;;;;;29.77;17.38;;;;;;;;;;5124006;28;20088;-61
2021/11/14 11:18:05;;;;;;;32.38;16.40;;;;;;;;;;5116404;28;20310;-62
2021/11/14 11:20:32;;;;;;;36.40;17.58;;;;;;;;;;5114500;28;20118;-61
2021/11/14 11:23:03;;;;;;;35.38;18.10;;;;;;;;;;5113642;28;20054;-61
2021/11/14 11:25:30;;;;;;;35.95;18.20;;;;;;;;;;5123815;28;20039;-62
2021/11/14 11:27:57;;;;;;;30.23;17.35;;;;;;;;;;5113160;28;20036;-62
2021/11/14 11:30:42;;;;;;;34.42;19.30;;;;;;;;;;5118987;28;20111;-62
2021/11/14 11:33:08;;;;;;;32.60;17.67;;;;;;;;;;5096285;28;20047;-62
2021/11/14 11:35:35;;;;;;;34.88;20.27;;;;;;;;;;5113671;28;20039;-61
2021/11/14 11:38:02;;;;;;;37.00;19.67;;;;;;;;;;5116953;28;20055;-62
2021/11/14 11:40:28;;;;;;;40.08;19.42;;;;;;;;;;5113652;28;20063;-62
2021/11/14 11:42:54;;;;;;;36.33;17.60;;;;;;;;;;5117985;28;20040;-62
2021/11/14 11:45:31;;;;;;;36.70;20.25;;;;;;;;;;5113692;28;20040;-62
2021/11/14 11:47:59;;;;;;;40.03;21.63;;;;;;;;;;5119257;28;20055;-62
2021/11/14 11:50:26;;;;;;;;;;;;;;;;;;5098337;28;20063;-62
2021/11/14 11:52:52;;;;;;;42.38;21.63;;;;;;;;;;5115354;28;19920;-63
2021/11/14 11:55:27;;;;;;;55.92;24.92;;;;;;;;;;5122412;28;20058;-62
2021/11/14 11:57:54;;;;;;;53.97;25.42;;;;;;;;;;5116066;28;20047;-63
2021/11/14 12:00:20;;;;;;;50.65;25.35;;;;;;;;;;5097262;28;20039;-63
2021/11/14 12:02:46;;;;;;;30.77;17.70;;;;;;;;;;5117065;28;20044;-62
2021/11/14 12:05:14;;;;;;;38.03;19.67;;;;;;;;;;5118523;28;20058;-62
2021/11/14 12:07:44;;;;;;;39.78;21.73;;;;;;;;;;5120592;28;20044;-62
2021/11/14 12:10:12;;;;;;;40.80;21.83;;;;;;;;;;5113227;28;20082;-61
2021/11/14 12:12:38;;;;;;;;;;;;;;;;;;5120730;28;20075;-61
2021/11/14 12:15:06;;;;;;;33.88;18.65;;;;;;;;;;5118586;28;19924;-62
2021/11/14 12:17:32;;;;;;;46.25;23.45;;;;;;;;;;5120825;28;20047;-61
2021/11/14 12:20:06;;;;;;;43.33;21.77;;;;;;;;;;5116714;28;20040;-61
2021/11/14 12:22:40;;;;;;;45.90;19.48;;;;;;;;;;5113484;28;21603;-62
2021/11/14 12:25:07;;;;;;;51.80;23.75;;;;;;;;;;5120563;28;20043;-62
2021/11/14 12:27:35;;;;;;;51.42;25.02;;;;;;;;;;5116935;28;20040;-61
2021/11/14 12:30:02;;;;;;;45.38;22.30;;;;;;;;;;5113050;28;20053;-62
2021/11/14 12:32:42;;;;;;;56.45;25.77;;;;;;;;;;5114298;28;20070;-62
2021/11/14 12:35:21;;;;;;;52.45;26.02;;;;;;;;;;5113930;28;20069;-62
2021/11/14 12:37:49;;;;;;;56.60;26.70;;;;;;;;;;5119385;28;20056;-62
2021/11/14 12:40:20;;;;;;;50.90;27.45;;;;;;;;;;5112001;28;20073;-64
2021/11/14 12:42:46;;;;;;;49.13;24.90;;;;;;;;;;5092265;28;20044;-62
2021/11/14 12:45:13;;;;;;;46.30;23.25;;;;;;;;;;5117056;28;20041;-62
2021/11/14 12:47:40;;;;;;;56.47;26.70;;;;;;;;;;5115992;28;20058;-62
2021/11/14 12:50:14;;;;;;;47.38;24.65;;;;;;;;;;5115995;28;20056;-62
2021/11/14 12:52:42;;;;;;;50.80;25.23;;;;;;;;;;5116815;28;20074;-62
2021/11/14 12:55:12;;;;;;;47.85;25.77;;;;;;;;;;5120214;28;20122;-63
2021/11/14 12:57:55;;;;;;;57.67;28.30;;;;;;;;;;5116843;28;20072;-62
2021/11/14 13:00:33;;;;;;;53.85;26.17;;;;;;;;;;5083610;28;20132;-62
2021/11/14 13:03:00;;;;;;;52.20;25.77;;;;;;;;;;5120557;28;20043;-62
2021/11/14 13:05:27;;;;;;;49.72;24.95;;;;;;;;;;5120277;28;20051;-62
2021/11/14 13:08:00;;;;;;;54.57;27.07;;;;;;;;;;5108806;28;20123;-62
2021/11/14 13:10:28;;;;;;;48.97;24.75;;;;;;;;;;5115386;28;20138;-63
2021/11/14 13:12:54;;;;;;;42.05;20.92;;;;;;;;;;5104455;28;20040;-62
2021/11/14 13:15:21;;;;;;;49.45;23.30;;;;;;;;;;5109931;28;20136;-62
2021/11/14 13:17:52;;;;;;;52.50;25.02;;;;;;;;;;5111410;28;20070;-62
2021/11/14 13:20:20;;;;;;;54.58;27.08;;;;;;;;;;5114682;28;20043;-62
2021/11/14 13:22:50;;;;;;;45.47;23.73;;;;;;;;;;5114730;28;20043;-62
2021/11/14 13:25:24;;;;;;;50.72;23.17;;;;;;;;;;5113476;28;20051;-62
2021/11/14 13:27:53;;;;;;;50.50;26.33;;;;;;;;;;5122770;28;20039;-62
2021/11/14 13:30:19;;;;;;;49.17;26.08;;;;;;;;;;5115802;28;20047;-62
2021/11/14 13:32:47;;;;;;;46.05;23.67;;;;;;;;;;5111362;28;20095;-62
2021/11/14 13:35:13;;;;;;;47.30;25.50;;;;;;;;;;5114098;28;20047;-62
2021/11/14 13:37:40;;;;;;;42.78;24.52;;;;;;;;;;5120182;28;20080;-65
2021/11/14 13:40:08;;;;;;;45.30;23.10;;;;;;;;;;5098551;28;20106;-64
2021/11/14 13:42:36;;;;;;;45.47;24.75;;;;;;;;;;5109782;28;20494;-62
2021/11/14 13:45:05;;;;;;;44.67;22.83;;;;;;;;;;5113330;28;20074;-62
2021/11/14 13:47:33;;;;;;;46.55;26.02;;;;;;;;;;5110567;28;20107;-62
2021/11/14 13:49:59;;;;;;;;;;;;;;;;;;5119924;28;20043;-62
2021/11/14 13:52:26;;;;;;;51.65;25.65;;;;;;;;;;5117794;28;19926;-62
2021/11/14 13:54:54;;;;;;;72.47;39.55;;;;;;;;;;5116609;28;20036;-73
2021/11/14 13:57:27;;;;;;;40.38;21.42;;;;;;;;;;5095494;28;20077;-74
2021/11/14 13:59:54;;;;;;;45.20;24.27;;;;;;;;;;5113494;28;20047;-72
2021/11/14 14:02:21;;;;;;;35.80;19.85;;;;;;;;;;5118973;28;20028;-70
2021/11/14 14:04:54;;;;;;;41.03;22.17;;;;;;;;;;5111886;28;20253;-62
2021/11/14 14:07:21;;;;;;;40.85;21.88;;;;;;;;;;5115741;28;20032;-61
2021/11/14 14:09:56;;;;;;;42.85;23.38;;;;;;;;;;5120824;28;20462;-61
2021/11/14 14:12:22;;;;;;;41.35;21.80;;;;;;;;;;5113969;28;20556;-61
2021/11/14 14:14:49;;;;;;;41.58;22.23;;;;;;;;;;5109244;28;20046;-62
2021/11/14 14:17:16;;;;;;;39.40;21.90;;;;;;;;;;5116999;28;20040;-62
2021/11/14 14:19:43;;;;;;;39.28;22.40;;;;;;;;;;5115374;28;20286;-62
2021/11/14 14:22:09;;;;;;;48.08;24.60;;;;;;;;;;5113677;28;20048;-61